createdAt,value
2023-04-09T00:00:27.920Z,0.90
2023-04-09T00:01:27.937Z,0.90
2023-04-09T00:02:27.990Z,0.70
2023-04-09T00:03:28.082Z,0.80
2023-04-09T00:04:28.012Z,0.70
2023-04-09T00:05:27.992Z,0.60
2023-04-09T00:06:28.005Z,0.60
2023-04-09T00:07:28.013Z,0.80
2023-04-09T00:08:28.036Z,0.70
2023-04-09T00:09:28.049Z,0.70
2023-04-09T00:10:28.062Z,0.80
2023-04-09T00:11:28.101Z,0.70
2023-04-09T00:12:28.097Z,0.80
2023-04-09T00:13:36.083Z,0.90
2023-04-09T00:14:28.125Z,0.70
2023-04-09T00:15:31.736Z,0.80
2023-04-09T00:16:28.204Z,0.80
2023-04-09T00:17:28.224Z,0.80
2023-04-09T00:18:28.194Z,0.80
2023-04-09T00:19:28.200Z,0.70
2023-04-09T00:20:28.212Z,0.70
2023-04-09T00:21:28.233Z,0.70
2023-04-09T00:22:28.243Z,0.60
2023-04-09T00:23:28.255Z,0.90
2023-04-09T00:24:28.272Z,0.60
2023-04-09T00:25:28.307Z,1.00
2023-04-09T00:26:28.315Z,0.60
2023-04-09T00:27:28.352Z,0.60
2023-04-09T00:28:28.324Z,0.80
2023-04-09T00:29:28.350Z,0.70
2023-04-09T00:30:28.361Z,0.90
2023-04-09T00:31:28.412Z,0.80
2023-04-09T00:32:28.629Z,0.90
2023-04-09T00:33:28.399Z,0.60
2023-04-09T00:34:28.433Z,0.70
2023-04-09T00:35:28.427Z,0.70
2023-04-09T00:36:28.441Z,0.70
2023-04-09T00:37:28.463Z,0.90
2023-04-09T00:38:28.490Z,0.90
2023-04-09T00:39:28.494Z,0.70
2023-04-09T00:40:28.509Z,0.70
2023-04-09T00:41:28.523Z,0.80
2023-04-09T00:42:28.538Z,0.80
2023-04-09T00:43:28.575Z,0.90
2023-04-09T00:44:28.568Z,0.80
2023-04-09T00:45:28.594Z,0.80
2023-04-09T00:46:28.603Z,0.80
2023-04-09T00:47:28.639Z,1.00
2023-04-09T00:48:28.623Z,0.90
2023-04-09T00:49:28.644Z,0.90
2023-04-09T00:50:28.663Z,0.60
2023-04-09T00:51:28.679Z,0.80
2023-04-09T00:52:28.688Z,0.80
2023-04-09T00:53:28.701Z,0.90
2023-04-09T00:54:28.717Z,0.70
2023-04-09T00:55:28.730Z,0.80
2023-04-09T00:56:28.746Z,0.80
2023-04-09T00:57:28.765Z,0.90
2023-04-09T00:58:28.769Z,0.90
2023-04-09T00:59:28.802Z,0.80
2023-04-09T01:00:28.797Z,0.90
2023-04-09T01:01:28.852Z,0.80
2023-04-09T01:02:29.049Z,0.80
2023-04-09T01:03:28.989Z,0.90
2023-04-09T01:04:28.860Z,0.90
2023-04-09T01:05:28.870Z,0.90
2023-04-09T01:06:28.898Z,1.00
2023-04-09T01:07:28.896Z,0.90
2023-04-09T01:08:28.920Z,0.80
2023-04-09T01:09:28.924Z,1.00
2023-04-09T01:10:28.941Z,0.80
2023-04-09T01:11:28.976Z,0.70
2023-04-09T01:12:28.980Z,0.90
2023-04-09T01:13:28.984Z,0.60
2023-04-09T01:14:28.999Z,0.90
2023-04-09T01:15:29.035Z,0.80
2023-04-09T01:16:29.063Z,0.80
2023-04-09T01:17:29.108Z,0.90
2023-04-09T01:18:29.068Z,0.70
2023-04-09T01:19:29.073Z,0.80
2023-04-09T01:20:29.091Z,1.20
2023-04-09T01:21:29.100Z,0.80
2023-04-09T01:22:29.124Z,1.00
2023-04-09T01:23:29.130Z,0.80
2023-04-09T01:24:29.149Z,0.90
2023-04-09T01:25:29.167Z,0.70
2023-04-09T01:26:29.177Z,0.80
2023-04-09T01:27:29.190Z,0.80
2023-04-09T01:28:29.203Z,1.00
2023-04-09T01:29:29.228Z,0.90
2023-04-09T01:30:29.278Z,0.80
2023-04-09T01:31:29.281Z,0.90
2023-04-09T01:32:29.332Z,0.80
2023-04-09T01:33:29.284Z,0.90
2023-04-09T01:34:29.305Z,0.80
2023-04-09T01:35:29.323Z,0.90
2023-04-09T01:36:29.354Z,0.90
2023-04-09T01:37:29.341Z,0.90
2023-04-09T01:38:29.376Z,0.70
2023-04-09T01:39:29.365Z,0.80
2023-04-09T01:40:29.387Z,0.80
2023-04-09T01:41:29.396Z,1.10
2023-04-09T01:42:29.417Z,0.90
2023-04-09T01:43:29.425Z,0.90
2023-04-09T01:44:29.453Z,0.80
2023-04-09T01:45:29.461Z,0.80
2023-04-09T01:46:29.628Z,1.00
2023-04-09T01:47:29.548Z,0.80
2023-04-09T01:48:29.499Z,0.90
2023-04-09T01:49:29.513Z,0.90
2023-04-09T01:50:29.530Z,0.90
2023-04-09T01:51:29.549Z,0.90
2023-04-09T01:52:29.557Z,0.90
2023-04-09T01:53:29.587Z,0.90
2023-04-09T01:54:29.600Z,0.80
2023-04-09T01:55:29.602Z,0.80
2023-04-09T01:56:29.627Z,0.80
2023-04-09T01:57:29.632Z,0.70
2023-04-09T01:58:29.661Z,0.80
2023-04-09T01:59:29.660Z,0.80
2023-04-09T02:00:29.682Z,0.80
2023-04-09T02:01:29.748Z,0.60
2023-04-09T02:02:29.838Z,0.90
2023-04-09T02:03:29.803Z,0.80
2023-04-09T02:04:29.737Z,0.80
2023-04-09T02:05:29.762Z,0.80
2023-04-09T02:06:29.763Z,1.00
2023-04-09T02:07:29.784Z,0.70
2023-04-09T02:08:29.796Z,1.00
2023-04-09T02:09:29.816Z,0.70
2023-04-09T02:10:29.822Z,0.90
2023-04-09T02:11:29.839Z,0.80
2023-04-09T02:12:29.858Z,0.60
2023-04-09T02:13:29.893Z,0.90
2023-04-09T02:14:29.888Z,0.90
2023-04-09T02:15:29.939Z,0.90
2023-04-09T02:16:29.910Z,0.90
2023-04-09T02:17:29.964Z,0.90
2023-04-09T02:18:29.945Z,1.00
2023-04-09T02:19:29.982Z,0.80
2023-04-09T02:20:29.980Z,0.90
2023-04-09T02:21:29.998Z,0.80
2023-04-09T02:22:30.003Z,0.80
2023-04-09T02:23:30.022Z,0.90
2023-04-09T02:24:30.045Z,0.80
2023-04-09T02:25:30.045Z,0.90
2023-04-09T02:26:30.065Z,1.00
2023-04-09T02:27:30.082Z,0.90
2023-04-09T02:28:30.096Z,0.90
2023-04-09T02:29:30.121Z,0.90
2023-04-09T02:30:30.126Z,0.90
2023-04-09T02:31:30.188Z,0.80
2023-04-09T02:32:30.153Z,1.00
2023-04-09T02:33:30.166Z,1.00
2023-04-09T02:34:30.174Z,0.80
2023-04-09T02:35:30.247Z,0.90
2023-04-09T02:36:30.203Z,1.00
2023-04-09T02:37:30.225Z,0.90
2023-04-09T02:38:30.233Z,0.80
2023-04-09T02:39:30.253Z,0.90
2023-04-09T02:40:30.269Z,0.90
2023-04-09T02:41:30.283Z,0.90
2023-04-09T02:42:30.291Z,0.90
2023-04-09T02:43:30.307Z,0.80
2023-04-09T02:44:30.329Z,0.80
2023-04-09T02:45:30.345Z,0.80
2023-04-09T02:46:30.384Z,1.00
2023-04-09T02:47:30.468Z,0.90
2023-04-09T02:48:30.379Z,0.90
2023-04-09T02:49:30.398Z,0.90
2023-04-09T02:50:30.418Z,0.90
2023-04-09T02:51:30.455Z,0.80
2023-04-09T02:52:30.438Z,0.90
2023-04-09T02:53:30.454Z,1.00
2023-04-09T02:54:30.468Z,0.90
2023-04-09T02:55:30.484Z,0.90
2023-04-09T02:56:30.497Z,0.80
2023-04-09T02:57:30.595Z,0.80
2023-04-09T02:58:30.527Z,1.00
2023-04-09T02:59:30.543Z,1.00
2023-04-09T03:00:30.563Z,0.80
2023-04-09T03:01:30.614Z,1.00
2023-04-09T03:02:30.687Z,0.90
2023-04-09T03:03:30.613Z,1.00
2023-04-09T03:04:30.632Z,0.80
2023-04-09T03:05:30.641Z,0.70
2023-04-09T03:06:30.645Z,0.90
2023-04-09T03:07:30.681Z,0.80
2023-04-09T03:08:30.681Z,0.90
2023-04-09T03:09:30.693Z,1.00
2023-04-09T03:10:30.711Z,1.00
2023-04-09T03:11:30.718Z,0.80
2023-04-09T03:12:30.739Z,1.00
2023-04-09T03:13:30.747Z,0.80
2023-04-09T03:14:30.771Z,0.90
2023-04-09T03:15:30.783Z,0.80
2023-04-09T03:16:30.795Z,0.90
2023-04-09T03:17:30.848Z,1.00
2023-04-09T03:18:30.822Z,1.00
2023-04-09T03:19:30.842Z,0.90
2023-04-09T03:20:30.854Z,0.90
2023-04-09T03:21:30.875Z,0.90
2023-04-09T03:22:30.886Z,0.90
2023-04-09T03:23:30.937Z,0.80
2023-04-09T03:24:30.927Z,0.90
2023-04-09T03:25:30.927Z,0.80
2023-04-09T03:26:30.957Z,1.00
2023-04-09T03:27:30.971Z,0.90
2023-04-09T03:28:30.969Z,0.90
2023-04-09T03:29:30.992Z,0.70
2023-04-09T03:30:31.005Z,0.90
2023-04-09T03:31:31.050Z,0.90
2023-04-09T03:32:31.082Z,0.70
2023-04-09T03:33:31.048Z,0.80
2023-04-09T03:34:31.076Z,0.90
2023-04-09T03:35:31.141Z,0.80
2023-04-09T03:36:31.089Z,0.80
2023-04-09T03:37:31.103Z,0.90
2023-04-09T03:38:31.121Z,0.90
2023-04-09T03:39:31.155Z,0.80
2023-04-09T03:40:31.151Z,0.80
2023-04-09T03:41:31.169Z,0.90
2023-04-09T03:42:31.173Z,0.90
2023-04-09T03:43:31.193Z,0.70
2023-04-09T03:44:31.210Z,0.90
2023-04-09T03:45:31.229Z,0.80
2023-04-09T03:46:31.277Z,0.70
2023-04-09T03:47:31.260Z,0.70
2023-04-09T03:48:31.266Z,0.70
2023-04-09T03:49:31.273Z,0.70
2023-04-09T03:50:31.288Z,0.80
2023-04-09T03:51:31.309Z,0.80
2023-04-09T03:52:31.325Z,0.70
2023-04-09T03:53:31.341Z,0.70
2023-04-09T03:54:31.349Z,0.80
2023-04-09T03:55:31.385Z,0.90
2023-04-09T03:56:31.380Z,0.60
2023-04-09T03:57:31.398Z,0.80
2023-04-09T03:58:31.414Z,0.80
2023-04-09T03:59:31.423Z,0.90
2023-04-09T04:00:31.438Z,0.70
2023-04-09T04:01:31.471Z,0.80
2023-04-09T04:02:31.574Z,0.70
2023-04-09T04:03:31.685Z,0.80
2023-04-09T04:04:31.626Z,0.70
2023-04-09T04:05:31.514Z,0.60
2023-04-09T04:06:31.526Z,0.80
2023-04-09T04:07:31.531Z,0.70
2023-04-09T04:08:31.564Z,0.70
2023-04-09T04:09:31.563Z,0.60
2023-04-09T04:10:31.582Z,0.70
2023-04-09T04:11:31.611Z,0.70
2023-04-09T04:12:31.612Z,0.50
2023-04-09T04:13:31.718Z,0.70
2023-04-09T04:14:31.647Z,0.60
2023-04-09T04:15:31.672Z,0.80
2023-04-09T04:16:31.685Z,0.70
2023-04-09T04:17:31.742Z,0.70
2023-04-09T04:18:31.703Z,0.60
2023-04-09T04:19:31.713Z,0.70
2023-04-09T04:20:31.718Z,0.80
2023-04-09T04:21:31.734Z,0.70
2023-04-09T04:22:31.751Z,0.50
2023-04-09T04:23:31.764Z,0.70
2023-04-09T04:24:31.805Z,0.60
2023-04-09T04:25:31.804Z,0.60
2023-04-09T04:26:31.822Z,0.60
2023-04-09T04:27:31.900Z,0.70
2023-04-09T04:28:31.836Z,0.70
2023-04-09T04:29:31.868Z,0.70
2023-04-09T04:30:31.866Z,0.60
2023-04-09T04:31:31.896Z,0.70
2023-04-09T04:32:31.911Z,0.60
2023-04-09T04:33:31.915Z,0.70
2023-04-09T04:34:31.931Z,0.80
2023-04-09T04:35:31.955Z,0.70
2023-04-09T04:36:31.953Z,0.80
2023-04-09T04:37:31.974Z,0.90
2023-04-09T04:38:31.989Z,0.70
2023-04-09T04:39:32.010Z,0.60
2023-04-09T04:40:32.012Z,0.60
2023-04-09T04:41:32.025Z,0.80
2023-04-09T04:42:32.051Z,0.60
2023-04-09T04:43:32.073Z,0.80
2023-04-09T04:44:32.083Z,0.70
2023-04-09T04:45:32.118Z,0.60
2023-04-09T04:46:32.098Z,0.70
2023-04-09T04:47:32.160Z,0.60
2023-04-09T04:48:32.153Z,0.70
2023-04-09T04:49:32.166Z,0.60
2023-04-09T04:50:32.163Z,0.50
2023-04-09T04:51:32.174Z,0.70
2023-04-09T04:52:32.184Z,0.70
2023-04-09T04:53:32.212Z,0.80
2023-04-09T04:54:32.225Z,0.60
2023-04-09T04:55:32.234Z,0.70
2023-04-09T04:56:32.275Z,0.70
2023-04-09T04:57:32.265Z,0.60
2023-04-09T04:58:32.282Z,0.70
2023-04-09T04:59:32.305Z,0.70
2023-04-09T05:00:32.309Z,0.70
2023-04-09T05:01:32.415Z,0.50
2023-04-09T05:02:32.412Z,0.70
2023-04-09T05:03:32.469Z,0.60
2023-04-09T05:04:32.371Z,0.60
2023-04-09T05:05:32.372Z,0.70
2023-04-09T05:06:32.393Z,0.60
2023-04-09T05:07:32.420Z,0.70
2023-04-09T05:08:32.420Z,0.60
2023-04-09T05:09:32.432Z,0.60
2023-04-09T05:10:32.453Z,0.60
2023-04-09T05:11:32.468Z,0.70
2023-04-09T05:12:32.480Z,0.60
2023-04-09T05:13:32.489Z,0.70
2023-04-09T05:14:32.502Z,0.60
2023-04-09T05:15:32.537Z,0.60
2023-04-09T05:16:33.224Z,0.60
2023-04-09T05:17:32.582Z,0.60
2023-04-09T05:18:32.560Z,0.60
2023-04-09T05:19:32.581Z,0.70
2023-04-09T05:20:32.588Z,0.60
2023-04-09T05:21:32.613Z,0.60
2023-04-09T05:22:32.625Z,0.60
2023-04-09T05:23:32.634Z,0.70
2023-04-09T05:24:32.646Z,0.50
2023-04-09T05:25:32.683Z,0.50
2023-04-09T05:26:32.693Z,0.70
2023-04-09T05:27:32.693Z,0.60
2023-04-09T05:28:32.711Z,0.60
2023-04-09T05:29:32.721Z,0.70
2023-04-09T05:30:32.809Z,0.60
2023-04-09T05:31:32.906Z,0.50
2023-04-09T05:32:32.784Z,0.70
2023-04-09T05:33:32.785Z,0.40
2023-04-09T05:34:32.792Z,0.40
2023-04-09T05:35:32.819Z,0.60
2023-04-09T05:36:32.830Z,0.40
2023-04-09T05:37:32.838Z,0.60
2023-04-09T05:38:32.854Z,0.50
2023-04-09T05:39:32.880Z,0.60
2023-04-09T05:40:32.928Z,0.60
2023-04-09T05:41:32.895Z,0.50
2023-04-09T05:42:32.910Z,0.60
2023-04-09T05:43:32.925Z,0.60
2023-04-09T05:44:32.949Z,0.70
2023-04-09T05:45:32.954Z,0.50
2023-04-09T05:46:33.021Z,0.70
2023-04-09T05:47:33.090Z,0.50
2023-04-09T05:48:32.998Z,0.60
2023-04-09T05:49:33.024Z,0.60
2023-04-09T05:50:38.192Z,0.60
2023-04-09T05:51:33.055Z,0.60
2023-04-09T05:52:33.056Z,0.60
2023-04-09T05:53:33.078Z,0.50
2023-04-09T05:54:33.086Z,0.50
2023-04-09T05:55:33.118Z,0.70
2023-04-09T05:56:33.112Z,0.60
2023-04-09T05:57:33.145Z,0.50
2023-04-09T05:58:33.160Z,0.60
2023-04-09T05:59:33.167Z,0.50
2023-04-09T06:00:33.179Z,0.50
2023-04-09T06:01:33.230Z,0.50
2023-04-09T06:02:33.244Z,0.50
2023-04-09T06:03:33.413Z,0.50
2023-04-09T06:04:33.254Z,0.60
2023-04-09T06:05:33.254Z,0.70
2023-04-09T06:06:33.265Z,0.50
2023-04-09T06:07:33.278Z,0.70
2023-04-09T06:08:33.299Z,0.50
2023-04-09T06:09:33.305Z,0.70
2023-04-09T06:10:33.379Z,0.50
2023-04-09T06:11:33.337Z,0.40
2023-04-09T06:12:33.351Z,0.50
2023-04-09T06:13:33.359Z,0.50
2023-04-09T06:14:33.371Z,0.50
2023-04-09T06:15:33.420Z,0.60
2023-04-09T06:16:33.409Z,0.60
2023-04-09T06:17:33.445Z,0.50
2023-04-09T06:18:33.432Z,0.50
2023-04-09T06:19:33.465Z,0.50
2023-04-09T06:20:33.477Z,0.40
2023-04-09T06:21:33.474Z,0.70
2023-04-09T06:22:33.496Z,0.60
2023-04-09T06:23:33.516Z,0.50
2023-04-09T06:24:33.522Z,0.50
2023-04-09T06:25:33.539Z,0.50
2023-04-09T06:26:33.547Z,0.50
2023-04-09T06:27:33.569Z,0.50
2023-04-09T06:28:33.578Z,0.40
2023-04-09T06:29:33.593Z,0.60
2023-04-09T06:30:33.611Z,0.40
2023-04-09T06:31:33.687Z,0.60
2023-04-09T06:32:40.374Z,0.50
2023-04-09T06:33:33.645Z,0.90
2023-04-09T06:34:33.671Z,0.40
2023-04-09T06:35:33.705Z,0.60
2023-04-09T06:36:33.718Z,0.40
2023-04-09T06:37:33.711Z,0.50
2023-04-09T06:38:33.720Z,0.30
2023-04-09T06:39:33.750Z,0.40
2023-04-09T06:40:33.746Z,0.40
2023-04-09T06:41:33.771Z,0.30
2023-04-09T06:42:33.787Z,0.50
2023-04-09T06:43:33.791Z,0.40
2023-04-09T06:44:33.810Z,0.50
2023-04-09T06:45:33.824Z,0.40
2023-04-09T06:46:33.868Z,0.40
2023-04-09T06:47:33.856Z,0.40
2023-04-09T06:48:33.868Z,0.60
2023-04-09T06:49:33.878Z,0.40
2023-04-09T06:50:34.314Z,0.60
2023-04-09T06:51:33.946Z,0.40
2023-04-09T06:52:33.947Z,0.40
2023-04-09T06:53:33.947Z,0.50
2023-04-09T06:54:33.960Z,0.30
2023-04-09T06:55:33.962Z,0.40
2023-04-09T06:56:33.975Z,0.60
2023-04-09T06:57:33.994Z,0.40
2023-04-09T06:58:34.110Z,0.40
2023-04-09T06:59:34.039Z,0.40
2023-04-09T07:00:34.039Z,0.40
2023-04-09T07:01:34.120Z,0.40
2023-04-09T07:02:34.167Z,0.50
2023-04-09T07:03:34.195Z,0.40
2023-04-09T07:04:34.165Z,0.40
2023-04-09T07:05:34.112Z,0.50
2023-04-09T07:06:34.136Z,0.50
2023-04-09T07:07:34.158Z,0.50
2023-04-09T07:08:34.148Z,0.60
2023-04-09T07:09:34.181Z,0.40
2023-04-09T07:10:34.184Z,0.50
2023-04-09T07:11:34.208Z,0.40
2023-04-09T07:12:34.205Z,0.40
2023-04-09T07:13:34.248Z,0.50
2023-04-09T07:14:34.234Z,0.50
2023-04-09T07:15:34.258Z,0.50
2023-04-09T07:16:34.386Z,0.40
2023-04-09T07:17:34.300Z,0.50
2023-04-09T07:18:34.306Z,0.40
2023-04-09T07:19:34.316Z,0.40
2023-04-09T07:20:34.340Z,0.50
2023-04-09T07:21:34.336Z,0.40
2023-04-09T07:22:34.358Z,0.50
2023-04-09T07:23:34.391Z,0.30
2023-04-09T07:24:34.377Z,0.60
2023-04-09T07:25:34.476Z,0.50
2023-04-09T07:26:34.419Z,0.40
2023-04-09T07:27:34.429Z,0.50
2023-04-09T07:28:34.449Z,0.50
2023-04-09T07:29:34.464Z,0.50
2023-04-09T07:30:34.478Z,0.50
2023-04-09T07:31:35.856Z,0.50
2023-04-09T07:32:34.528Z,0.60
2023-04-09T07:33:34.507Z,0.50
2023-04-09T07:34:34.529Z,0.60
2023-04-09T07:35:34.619Z,0.50
2023-04-09T07:36:34.554Z,0.50
2023-04-09T07:37:34.580Z,0.50
2023-04-09T07:38:34.578Z,0.60
2023-04-09T07:39:34.624Z,0.40
2023-04-09T07:40:34.606Z,0.60
2023-04-09T07:41:34.621Z,0.40
2023-04-09T07:42:34.636Z,0.60
2023-04-09T07:43:34.667Z,0.60
2023-04-09T07:44:34.663Z,0.50
2023-04-09T07:45:34.686Z,0.40
2023-04-09T07:46:34.748Z,0.60
2023-04-09T07:47:34.760Z,0.50
2023-04-09T07:48:34.729Z,0.50
2023-04-09T07:49:34.736Z,0.50
2023-04-09T07:50:34.752Z,0.40
2023-04-09T07:51:34.776Z,0.50
2023-04-09T07:52:34.796Z,0.50
2023-04-09T07:53:34.964Z,0.50
2023-04-09T07:54:34.823Z,0.50
2023-04-09T07:55:34.850Z,0.40
2023-04-09T07:56:34.848Z,0.40
2023-04-09T07:57:34.858Z,0.40
2023-04-09T07:58:34.884Z,0.50
2023-04-09T07:59:34.900Z,0.40
2023-04-09T08:00:34.902Z,0.60
2023-04-09T08:01:34.948Z,0.40
2023-04-09T08:02:34.988Z,0.50
2023-04-09T08:03:35.191Z,0.30
2023-04-09T08:04:35.032Z,0.40
2023-04-09T08:05:34.978Z,0.50
2023-04-09T08:06:34.985Z,0.70
2023-04-09T08:07:35.004Z,0.40
2023-04-09T08:08:35.011Z,0.40
2023-04-09T08:09:35.035Z,0.40
2023-04-09T08:10:35.041Z,0.40
2023-04-09T08:11:35.075Z,0.40
2023-04-09T08:12:35.078Z,0.40
2023-04-09T08:13:35.093Z,0.40
2023-04-09T08:14:35.105Z,0.40
2023-04-09T08:15:35.118Z,0.50
2023-04-09T08:16:35.176Z,0.60
2023-04-09T08:17:35.212Z,0.40
2023-04-09T08:18:35.164Z,0.50
2023-04-09T08:19:35.168Z,0.40
2023-04-09T08:20:35.191Z,0.40
2023-04-09T08:21:35.205Z,0.50
2023-04-09T08:22:35.214Z,0.40
2023-04-09T08:23:35.245Z,0.40
2023-04-09T08:24:35.240Z,0.30
2023-04-09T08:25:35.262Z,0.40
2023-04-09T08:26:35.268Z,0.50
2023-04-09T08:27:35.312Z,0.50
2023-04-09T08:28:35.307Z,0.50
2023-04-09T08:29:35.315Z,0.40
2023-04-09T08:30:35.326Z,0.40
2023-04-09T08:31:35.368Z,0.40
2023-04-09T08:32:35.407Z,0.40
2023-04-09T08:33:35.369Z,0.50
2023-04-09T08:34:35.400Z,0.40
2023-04-09T08:35:35.610Z,0.30
2023-04-09T08:36:35.489Z,0.40
2023-04-09T08:37:35.434Z,0.50
2023-04-09T08:38:35.441Z,0.40
2023-04-09T08:39:35.466Z,0.40
2023-04-09T08:40:35.495Z,0.40
2023-04-09T08:41:35.490Z,0.30
2023-04-09T08:42:35.520Z,0.50
2023-04-09T08:43:53.130Z,0.40
2023-04-09T08:44:35.526Z,0.60
2023-04-09T08:45:35.609Z,0.40
2023-04-09T08:46:35.562Z,0.50
2023-04-09T08:47:35.647Z,0.50
2023-04-09T08:48:35.667Z,0.30
2023-04-09T08:49:35.608Z,0.40
2023-04-09T08:50:35.620Z,0.30
2023-04-09T08:51:35.627Z,0.40
2023-04-09T08:52:35.655Z,0.50
2023-04-09T08:53:35.658Z,0.50
2023-04-09T08:54:35.699Z,0.40
2023-04-09T08:55:35.693Z,0.30
2023-04-09T08:56:35.699Z,0.40
2023-04-09T08:57:35.715Z,0.50
2023-04-09T08:58:35.729Z,0.40
2023-04-09T08:59:35.761Z,0.40
2023-04-09T09:00:35.766Z,0.40
2023-04-09T09:01:35.869Z,0.30
2023-04-09T09:02:35.876Z,0.40
2023-04-09T09:03:35.866Z,0.40
2023-04-09T09:04:35.819Z,0.30
2023-04-09T09:05:35.828Z,0.40
2023-04-09T09:06:35.866Z,0.30
2023-04-09T09:07:35.876Z,0.40
2023-04-09T09:08:35.873Z,0.50
2023-04-09T09:09:35.891Z,0.40
2023-04-09T09:10:35.903Z,0.40
2023-04-09T09:11:35.914Z,0.30
2023-04-09T09:12:35.932Z,0.40
2023-04-09T09:13:35.946Z,0.40
2023-04-09T09:14:35.963Z,0.20
2023-04-09T09:15:35.992Z,0.40
2023-04-09T09:16:35.999Z,0.40
2023-04-09T09:17:36.028Z,0.40
2023-04-09T09:18:36.016Z,0.40
2023-04-09T09:19:36.035Z,0.30
2023-04-09T09:20:36.056Z,0.30
2023-04-09T09:21:36.055Z,0.40
2023-04-09T09:22:36.065Z,0.40
2023-04-09T09:23:36.115Z,0.40
2023-04-09T09:24:36.100Z,0.30
2023-04-09T09:25:36.111Z,0.40
2023-04-09T09:26:36.126Z,0.40
2023-04-09T09:27:36.143Z,0.60
2023-04-09T09:28:36.150Z,0.30
2023-04-09T09:29:36.163Z,0.40
2023-04-09T09:30:36.241Z,0.30
2023-04-09T09:31:36.223Z,0.40
2023-04-09T09:32:36.277Z,0.40
2023-04-09T09:33:36.222Z,0.50
2023-04-09T09:34:36.251Z,0.40
2023-04-09T09:35:36.274Z,0.30
2023-04-09T09:36:36.267Z,0.30
2023-04-09T09:37:36.288Z,0.30
2023-04-09T09:38:36.297Z,0.30
2023-04-09T09:39:36.318Z,0.30
2023-04-09T09:40:36.331Z,0.20
2023-04-09T09:41:36.347Z,0.40
2023-04-09T09:42:36.362Z,0.30
2023-04-09T09:43:36.378Z,0.30
2023-04-09T09:44:36.382Z,0.30
2023-04-09T09:45:36.404Z,0.50
2023-04-09T09:46:36.454Z,0.30
2023-04-09T09:47:36.534Z,0.40
2023-04-09T09:48:36.456Z,0.40
2023-04-09T09:49:36.465Z,0.30
2023-04-09T09:50:36.469Z,0.40
2023-04-09T09:51:36.487Z,0.20
2023-04-09T09:52:36.509Z,0.40
2023-04-09T09:53:36.524Z,0.20
2023-04-09T09:54:36.565Z,0.40
2023-04-09T09:55:36.540Z,0.40
2023-04-09T09:56:36.563Z,0.40
2023-04-09T09:57:36.598Z,0.30
2023-04-09T09:58:36.615Z,0.40
2023-04-09T09:59:36.628Z,0.50
2023-04-09T10:00:36.620Z,0.30
2023-04-09T10:01:36.804Z,0.30
2023-04-09T10:02:36.774Z,0.30
2023-04-09T10:03:36.683Z,0.20
2023-04-09T10:04:36.877Z,0.30
2023-04-09T10:05:36.700Z,0.40
2023-04-09T10:06:36.698Z,0.30
2023-04-09T10:07:36.712Z,0.40
2023-04-09T10:08:36.733Z,0.20
2023-04-09T10:09:36.747Z,0.40
2023-04-09T10:10:36.763Z,0.20
2023-04-09T10:11:36.768Z,0.40
2023-04-09T10:12:36.789Z,0.20
2023-04-09T10:13:36.803Z,0.30
2023-04-09T10:14:36.819Z,0.30
2023-04-09T10:15:36.848Z,0.40
2023-04-09T10:16:36.851Z,0.30
2023-04-09T10:17:36.925Z,0.20
2023-04-09T10:18:36.910Z,0.30
2023-04-09T10:19:36.909Z,0.40
2023-04-09T10:20:36.895Z,0.30
2023-04-09T10:21:36.940Z,0.40
2023-04-09T10:22:36.933Z,0.30
2023-04-09T10:23:36.936Z,0.30
2023-04-09T10:24:36.968Z,0.30
2023-04-09T10:25:36.973Z,0.50
2023-04-09T10:26:36.979Z,0.40
2023-04-09T10:27:37.004Z,0.30
2023-04-09T10:28:37.016Z,0.30
2023-04-09T10:29:37.022Z,0.20
2023-04-09T10:30:37.042Z,0.40
2023-04-09T10:31:37.111Z,0.20
2023-04-09T10:32:37.118Z,0.50
2023-04-09T10:33:37.088Z,0.30
2023-04-09T10:34:37.097Z,0.30
2023-04-09T10:35:37.133Z,0.30
2023-04-09T10:36:37.143Z,0.50
2023-04-09T10:37:37.145Z,0.40
2023-04-09T10:38:37.164Z,0.40
2023-04-09T10:39:37.166Z,0.40
2023-04-09T10:40:37.189Z,0.40
2023-04-09T10:41:37.194Z,0.40
2023-04-09T10:42:37.225Z,0.30
2023-04-09T10:43:37.228Z,0.30
2023-04-09T10:44:37.247Z,0.40
2023-04-09T10:45:37.250Z,0.30
2023-04-09T10:46:37.352Z,0.40
2023-04-09T10:47:37.366Z,0.30
2023-04-09T10:48:37.301Z,0.30
2023-04-09T10:49:37.307Z,0.30
2023-04-09T10:50:37.331Z,0.30
2023-04-09T10:51:37.358Z,0.20
2023-04-09T10:52:37.351Z,0.30
2023-04-09T10:53:37.365Z,0.30
2023-04-09T10:54:37.385Z,0.40
2023-04-09T10:55:37.398Z,0.30
2023-04-09T10:56:37.415Z,0.20
2023-04-09T10:57:37.423Z,0.50
2023-04-09T10:58:37.444Z,0.30
2023-04-09T10:59:37.463Z,0.40
2023-04-09T11:00:37.465Z,0.20
2023-04-09T11:01:37.543Z,0.20
2023-04-09T11:02:37.795Z,0.30
2023-04-09T11:03:37.523Z,0.40
2023-04-09T11:04:37.555Z,0.40
2023-04-09T11:05:37.536Z,0.30
2023-04-09T11:06:37.551Z,0.30
2023-04-09T11:07:37.584Z,0.20
2023-04-09T11:08:37.591Z,0.30
2023-04-09T11:09:37.595Z,0.30
2023-04-09T11:10:37.621Z,0.30
2023-04-09T11:11:37.633Z,0.30
2023-04-09T11:12:37.651Z,0.40
2023-04-09T11:13:37.660Z,0.30
2023-04-09T11:14:37.674Z,0.30
2023-04-09T11:15:37.702Z,0.40
2023-04-09T11:16:37.775Z,0.20
2023-04-09T11:17:37.755Z,0.40
2023-04-09T11:18:37.716Z,0.30
2023-04-09T11:19:37.739Z,0.30
2023-04-09T11:20:37.746Z,0.50
2023-04-09T11:21:37.766Z,0.40
2023-04-09T11:22:37.776Z,0.40
2023-04-09T11:23:37.825Z,0.30
2023-04-09T11:24:37.816Z,0.40
2023-04-09T11:25:37.823Z,0.30
2023-04-09T11:26:37.841Z,0.30
2023-04-09T11:27:37.845Z,0.30
2023-04-09T11:28:37.865Z,0.30
2023-04-09T11:29:37.877Z,0.30
2023-04-09T11:30:37.894Z,0.30
2023-04-09T11:31:37.939Z,0.30
2023-04-09T11:32:37.968Z,0.40
2023-04-09T11:33:37.929Z,0.20
2023-04-09T11:34:37.958Z,0.40
2023-04-09T11:35:37.996Z,0.30
2023-04-09T11:36:37.974Z,0.40
2023-04-09T11:37:37.993Z,0.30
2023-04-09T11:38:38.012Z,0.30
2023-04-09T11:39:38.055Z,0.40
2023-04-09T11:40:38.027Z,0.40
2023-04-09T11:41:38.060Z,0.20
2023-04-09T11:42:38.054Z,0.30
2023-04-09T11:43:38.070Z,0.20
2023-04-09T11:44:38.084Z,0.50
2023-04-09T11:45:38.105Z,0.40
2023-04-09T11:46:38.184Z,0.40
2023-04-09T11:47:38.248Z,0.50
2023-04-09T11:48:38.140Z,0.50
2023-04-09T11:49:38.155Z,0.30
2023-04-09T11:50:38.172Z,0.30
2023-04-09T11:51:38.184Z,0.30
2023-04-09T11:52:38.206Z,0.30
2023-04-09T11:53:38.213Z,0.30
2023-04-09T11:54:38.237Z,0.30
2023-04-09T11:55:38.278Z,0.20
2023-04-09T11:56:38.255Z,0.40
2023-04-09T11:57:38.284Z,0.40
2023-04-09T11:58:38.289Z,0.20
2023-04-09T11:59:38.306Z,0.30
2023-04-09T12:00:38.322Z,0.40
2023-04-09T12:01:38.400Z,0.30
2023-04-09T12:02:38.526Z,0.40
2023-04-09T12:03:38.483Z,0.20
2023-04-09T12:04:38.446Z,0.40
2023-04-09T12:05:41.087Z,0.20
2023-04-09T12:06:38.405Z,0.40
2023-04-09T12:07:38.668Z,0.30
2023-04-09T12:08:38.443Z,0.50
2023-04-09T12:09:38.443Z,0.30
2023-04-09T12:10:38.461Z,0.40
2023-04-09T12:11:38.498Z,0.30
2023-04-09T12:12:38.484Z,0.40
2023-04-09T12:13:38.529Z,0.60
2023-04-09T12:14:38.514Z,0.20
2023-04-09T12:15:38.534Z,0.30
2023-04-09T12:16:38.590Z,0.30
2023-04-09T12:17:38.590Z,0.30
2023-04-09T12:18:38.569Z,0.50
2023-04-09T12:19:38.587Z,0.40
2023-04-09T12:20:38.616Z,0.30
2023-04-09T12:21:38.621Z,0.30
2023-04-09T12:22:38.636Z,0.20
2023-04-09T12:23:38.644Z,0.30
2023-04-09T12:24:38.667Z,0.30
2023-04-09T12:25:38.678Z,0.50
2023-04-09T12:26:38.703Z,0.30
2023-04-09T12:27:38.824Z,0.30
2023-04-09T12:28:38.722Z,0.30
2023-04-09T12:29:38.738Z,0.30
2023-04-09T12:30:38.745Z,0.20
2023-04-09T12:31:38.800Z,0.30
2023-04-09T12:32:38.806Z,0.40
2023-04-09T12:33:38.796Z,0.30
2023-04-09T12:34:38.805Z,0.40
2023-04-09T12:35:39.025Z,0.40
2023-04-09T12:36:38.824Z,0.30
2023-04-09T12:37:38.841Z,0.20
2023-04-09T12:38:38.871Z,0.30
2023-04-09T12:39:38.870Z,0.40
2023-04-09T12:40:38.897Z,0.40
2023-04-09T12:41:38.896Z,0.30
2023-04-09T12:42:38.911Z,0.30
2023-04-09T12:43:39.263Z,0.30
2023-04-09T12:44:38.939Z,0.40
2023-04-09T12:45:39.002Z,0.30
2023-04-09T12:46:38.967Z,0.40
2023-04-09T12:47:39.004Z,0.30
2023-04-09T12:48:39.002Z,0.30
2023-04-09T12:49:41.059Z,0.40
2023-04-09T12:50:39.035Z,0.40
2023-04-09T12:51:39.039Z,0.40
2023-04-09T12:52:39.063Z,0.50
2023-04-09T12:53:39.074Z,0.30
2023-04-09T12:54:39.088Z,0.40
2023-04-09T12:55:41.503Z,0.30
2023-04-09T12:56:39.116Z,0.50
2023-04-09T12:57:39.136Z,0.50
2023-04-09T12:58:39.167Z,0.30
2023-04-09T12:59:39.171Z,0.60
2023-04-09T13:00:39.187Z,0.30
2023-04-09T13:01:41.374Z,0.40
2023-04-09T13:02:39.467Z,0.50
2023-04-09T13:03:39.400Z,0.60
2023-04-09T13:04:39.301Z,0.30
2023-04-09T13:05:39.246Z,0.50
2023-04-09T13:06:39.263Z,0.50
2023-04-09T13:07:41.443Z,0.50
2023-04-09T13:08:39.288Z,0.40
2023-04-09T13:09:39.295Z,0.50
2023-04-09T13:10:39.311Z,0.40
2023-04-09T13:11:39.337Z,0.40
2023-04-09T13:12:39.349Z,0.50
2023-04-09T13:13:41.435Z,0.40
2023-04-09T13:14:39.375Z,0.50
2023-04-09T13:15:39.415Z,0.50
2023-04-09T13:16:39.421Z,0.40
2023-04-09T13:17:39.485Z,0.50
2023-04-09T13:18:39.424Z,0.60